Time;durP1;ratioP1;P1;durP2;ratioP2;P2;SDS_P1;SDS_P2;PMS_P1;PMS_P2;Temp;Humidity;BMP_temperature;BMP_pressure;BME280_temperature;BME280_humidity;BME280_pressure;Samples;Min_cycle;Max_cycle;Signal;HPM_P1;HPM_P2
2022/03/25 00:01:09;;;;;;;;;;;6.80;99.90;;;;;;5091720;28;19916;-68
2022/03/25 00:03:34;;;;;;;;;;;6.60;99.90;;;;;;5090269;28;19916;-68
2022/03/25 00:06:00;;;;;;;;;;;6.60;99.90;;;;;;5090879;28;19915;-68
2022/03/25 00:08:26;;;;;;;;;;;6.50;99.90;;;;;;5056736;28;20000;-68
2022/03/25 00:10:51;;;;;;;;;;;6.40;99.90;;;;;;5075053;28;20019;-69
2022/03/25 00:13:17;;;;;;;;;;;6.40;99.90;;;;;;5090765;28;20408;-68
2022/03/25 00:15:42;;;;;;;;;;;6.50;99.90;;;;;;5094031;28;20006;-68
2022/03/25 00:18:08;;;;;;;;;;;6.50;99.90;;;;;;5094304;28;19916;-68
2022/03/25 00:20:33;;;;;;;;;;;6.40;99.90;;;;;;5094076;28;19952;-68
2022/03/25 00:22:59;;;;;;;;;;;6.50;99.90;;;;;;5093140;28;20105;-69
2022/03/25 00:25:24;;;;;;;;;;;6.60;99.90;;;;;;5093916;28;19922;-67
2022/03/25 00:27:50;;;;;;;;;;;6.70;99.90;;;;;;5094065;28;19920;-69
2022/03/25 00:30:15;;;;;;;;;;;6.80;99.90;;;;;;5093908;28;20395;-69
2022/03/25 00:32:41;;;;;;;;;;;6.80;99.90;;;;;;5097739;28;20072;-68
2022/03/25 00:35:06;;;;;;;;;;;6.80;99.90;;;;;;5101582;28;20002;-68
2022/03/25 00:37:32;;;;;;;;;;;6.80;99.90;;;;;;5093616;28;19973;-67
2022/03/25 00:39:57;;;;;;;;;;;6.90;99.90;;;;;;5093572;28;19919;-68
2022/03/25 00:42:24;;;;;;;;;;;6.70;99.90;;;;;;5092838;28;20292;-68
2022/03/25 00:44:50;;;;;;;;;;;6.70;99.90;;;;;;5093299;28;20342;-68
2022/03/25 00:47:15;;;;;;;;;;;6.70;99.90;;;;;;5093521;28;19916;-68
2022/03/25 00:49:42;;;;;;;;;;;6.70;99.90;;;;;;5093219;28;19975;-68
2022/03/25 00:52:08;;;;;;;;;;;6.60;99.90;;;;;;5092457;28;20352;-68
2022/03/25 00:54:34;;;;;;;;;;;6.30;99.90;;;;;;5093459;28;19923;-70
2022/03/25 00:56:59;;;;;;;;;;;6.30;99.90;;;;;;5091943;28;20273;-68
2022/03/25 00:59:25;;;;;;;;;;;6.20;99.90;;;;;;5091784;28;20278;-68
2022/03/25 01:01:50;;;;;;;;;;;6.00;99.90;;;;;;5091014;28;19920;-68
2022/03/25 01:04:16;;;;;;;;;;;5.90;99.90;;;;;;5091539;28;20425;-68
2022/03/25 01:06:42;;;;;;;;;;;5.90;99.90;;;;;;5093022;28;19919;-67
2022/03/25 01:09:07;;;;;;;;;;;6.00;99.90;;;;;;5093237;28;20008;-68
2022/03/25 01:11:35;;;;;;;;;;;5.70;99.90;;;;;;5092948;28;19924;-68
2022/03/25 01:14:01;;;;;;;;;;;5.60;99.90;;;;;;5092690;28;19963;-67
2022/03/25 01:16:27;;;;;;;;;;;5.50;99.90;;;;;;5109703;28;19904;-68
2022/03/25 01:18:52;;;;;;;;;;;5.70;99.90;;;;;;5115224;28;20006;-68
2022/03/25 01:21:18;;;;;;;;;;;5.70;99.90;;;;;;5097173;28;19916;-68
2022/03/25 01:23:44;;;;;;;;;;;5.60;99.90;;;;;;5092332;28;19991;-66
2022/03/25 01:26:10;;;;;;;;;;;5.50;99.90;;;;;;5093228;28;19920;-67
2022/03/25 01:28:35;;;;;;;;;;;5.50;99.90;;;;;;5093327;28;20371;-67
2022/03/25 01:31:01;;;;;;;;;;;5.50;99.90;;;;;;5093174;28;19916;-66
2022/03/25 01:33:28;;;;;;;;;;;5.80;99.90;;;;;;5091640;28;19942;-67
2022/03/25 01:35:54;;;;;;;;;;;5.70;99.90;;;;;;5091241;28;19962;-67
2022/03/25 01:38:21;;;;;;;;;;;5.40;99.90;;;;;;5092525;28;20344;-67
2022/03/25 01:40:46;;;;;;;;;;;5.30;99.90;;;;;;5092747;28;20038;-67
2022/03/25 01:43:12;;;;;;;;;;;5.40;99.90;;;;;;5096066;28;20375;-68
2022/03/25 01:45:38;;;;;;;;;;;5.30;99.90;;;;;;5100702;28;20384;-68
2022/03/25 01:48:07;;;;;;;;;;;5.30;99.90;;;;;;5091922;28;19916;-68
2022/03/25 01:50:32;;;;;;;;;;;5.20;99.90;;;;;;5090730;28;20316;-68
2022/03/25 01:52:58;;;;;;;;;;;5.40;99.90;;;;;;5091350;28;19920;-69
2022/03/25 01:55:27;;;;;;;;;;;5.30;99.90;;;;;;5092281;28;20351;-68
2022/03/25 01:57:58;;;;;;;;;;;5.20;99.90;;;;;;5090917;28;19920;-67
2022/03/25 02:00:25;;;;;;;;;;;5.20;99.90;;;;;;5091927;28;19923;-67
2022/03/25 02:02:51;;;;;;;;;;;5.10;99.90;;;;;;5091367;28;19927;-67
2022/03/25 02:05:17;;;;;;;;;;;5.10;99.90;;;;;;5092119;28;19920;-67
2022/03/25 02:07:43;;;;;;;;;;;5.30;99.90;;;;;;5091967;28;19926;-67
2022/03/25 02:10:08;;;;;;;;;;;5.20;99.90;;;;;;5091395;28;19916;-67
2022/03/25 02:12:35;;;;;;;;;;;5.10;99.90;;;;;;5091066;28;20032;-67
2022/03/25 02:15:01;;;;;;;;;;;5.10;99.90;;;;;;5091726;28;19980;-68
2022/03/25 02:17:26;;;;;;;;;;;5.00;99.90;;;;;;5091733;28;20390;-67
2022/03/25 02:19:52;;;;;;;;;;;5.00;99.90;;;;;;5091801;28;19924;-67
2022/03/25 02:22:17;;;;;;;;;;;5.00;99.90;;;;;;5090809;28;19923;-67
2022/03/25 02:24:43;;;;;;;;;;;5.00;99.90;;;;;;5091689;28;20517;-67
2022/03/25 02:27:10;;;;;;;;;;;5.00;99.90;;;;;;5091562;28;20296;-67
2022/03/25 02:29:37;;;;;;;;;;;5.10;99.90;;;;;;5089832;28;20003;-67
2022/03/25 02:32:02;;;;;;;;;;;5.00;99.90;;;;;;5088844;28;19923;-68
2022/03/25 02:34:28;;;;;;;;;;;4.90;99.90;;;;;;5090043;28;20006;-67
2022/03/25 02:36:53;;;;;;;;;;;4.80;99.90;;;;;;5095672;28;19967;-67
2022/03/25 02:39:19;;;;;;;;;;;4.90;99.90;;;;;;5114477;28;19923;-66
2022/03/25 02:41:44;;;;;;;;;;;4.90;99.90;;;;;;5104858;28;19973;-67
2022/03/25 02:44:11;;;;;;;;;;;4.80;99.90;;;;;;5092230;28;20303;-67
2022/03/25 02:46:37;;;;;;;;;;;4.80;99.90;;;;;;5091143;28;19919;-68
2022/03/25 02:49:02;;;;;;;;;;;4.80;99.90;;;;;;5091342;28;19923;-67
2022/03/25 02:51:28;;;;;;;;;;;4.80;99.90;;;;;;5091246;28;19927;-68
2022/03/25 02:53:53;;;;;;;;;;;4.70;99.90;;;;;;5091918;28;20384;-68
2022/03/25 02:56:19;;;;;;;;;;;4.60;99.90;;;;;;5096069;28;19923;-68
2022/03/25 02:58:45;;;;;;;;;;;4.50;99.90;;;;;;5091398;28;19959;-67
2022/03/25 03:01:12;;;;;;;;;;;4.40;99.90;;;;;;5091007;28;19932;-67
2022/03/25 03:03:37;;;;;;;;;;;4.40;99.90;;;;;;5088590;28;20379;-67
2022/03/25 03:06:03;;;;;;;;;;;4.30;99.90;;;;;;5091121;28;19916;-67
2022/03/25 03:08:29;;;;;;;;;;;4.40;99.90;;;;;;5090756;28;19920;-67
2022/03/25 03:10:54;;;;;;;;;;;4.30;99.90;;;;;;5089241;28;19916;-67
2022/03/25 03:13:20;;;;;;;;;;;4.30;99.90;;;;;;5089932;28;19930;-67
2022/03/25 03:15:47;;;;;;;;;;;4.30;99.90;;;;;;5090783;28;19923;-67
2022/03/25 03:18:12;;;;;;;;;;;4.20;99.90;;;;;;5091084;28;19942;-67
2022/03/25 03:20:38;;;;;;;;;;;4.10;99.90;;;;;;5090804;28;20372;-67
2022/03/25 03:23:05;;;;;;;;;;;4.20;99.90;;;;;;5088635;28;20384;-67
2022/03/25 03:25:31;;;;;;;;;;;4.20;99.90;;;;;;5089507;28;19920;-67
2022/03/25 03:27:56;;;;;;;;;;;4.20;99.90;;;;;;5090688;28;19916;-67
2022/03/25 03:30:22;;;;;;;;;;;4.30;99.90;;;;;;5090393;28;19927;-67
2022/03/25 03:32:48;;;;;;;;;;;4.50;99.90;;;;;;5089744;28;19924;-67
2022/03/25 03:35:14;;;;;;;;;;;4.60;99.90;;;;;;5090588;28;19924;-66
2022/03/25 03:37:41;;;;;;;;;;;4.50;99.90;;;;;;5090754;28;19923;-67
2022/03/25 03:40:07;;;;;;;;;;;4.60;99.90;;;;;;5089122;28;19915;-66
2022/03/25 03:42:32;;;;;;;;;;;4.60;99.90;;;;;;5089736;28;19920;-67
2022/03/25 03:44:58;;;;;;;;;;;4.40;99.90;;;;;;5094774;28;19916;-66
2022/03/25 03:47:23;;;;;;;;;;;4.30;99.90;;;;;;5094859;28;19934;-66
2022/03/25 03:49:49;;;;;;;;;;;4.30;99.90;;;;;;5094490;28;20007;-67
2022/03/25 03:52:14;;;;;;;;;;;4.20;99.90;;;;;;5093803;28;19928;-67
2022/03/25 03:54:40;;;;;;;;;;;4.20;99.90;;;;;;5094736;28;19926;-67
2022/03/25 03:57:08;;;;;;;;;;;4.10;99.90;;;;;;5094654;28;20461;-67
2022/03/25 03:59:34;;;;;;;;;;;4.00;99.90;;;;;;5103624;28;19916;-67
2022/03/25 04:01:59;;;;;;;;;;;4.00;99.90;;;;;;5110670;28;19926;-67
2022/03/25 04:04:25;;;;;;;;;;;4.00;99.90;;;;;;5102248;28;20372;-68
2022/03/25 04:06:50;;;;;;;;;;;3.90;99.90;;;;;;5097554;28;19920;-67
2022/03/25 04:09:16;;;;;;;;;;;3.80;99.90;;;;;;5100092;28;20406;-67
2022/03/25 04:11:41;;;;;;;;;;;3.80;99.90;;;;;;5094496;28;19970;-67
2022/03/25 04:14:07;;;;;;;;;;;3.70;99.90;;;;;;5093823;28;20403;-67
2022/03/25 04:16:32;;;;;;;;;;;3.70;99.90;;;;;;5094328;28;19952;-67
2022/03/25 04:18:58;;;;;;;;;;;3.70;99.90;;;;;;5092345;28;20346;-67
2022/03/25 04:21:23;;;;;;;;;;;3.60;99.90;;;;;;5092917;28;19915;-67
2022/03/25 04:23:49;;;;;;;;;;;3.60;99.90;;;;;;5093247;28;19920;-67
2022/03/25 04:26:15;;;;;;;;;;;3.60;99.90;;;;;;5093955;28;19962;-67
2022/03/25 04:28:40;;;;;;;;;;;3.50;99.90;;;;;;5075548;28;19919;-67
2022/03/25 04:31:06;;;;;;;;;;;3.60;99.90;;;;;;5093750;28;19923;-67
2022/03/25 04:33:34;;;;;;;;;;;3.50;99.90;;;;;;5093089;28;19920;-67
2022/03/25 04:36:00;;;;;;;;;;;3.60;99.90;;;;;;5093609;28;19923;-67
2022/03/25 04:38:26;;;;;;;;;;;3.60;99.90;;;;;;5092131;28;19916;-68
2022/03/25 04:40:51;;;;;;;;;;;3.60;99.90;;;;;;5092517;28;19926;-67
2022/03/25 04:43:17;;;;;;;;;;;3.70;99.90;;;;;;5092477;28;19919;-67
2022/03/25 04:45:42;;;;;;;;;;;3.90;99.90;;;;;;5093280;28;20379;-67
2022/03/25 04:48:10;;;;;;;;;;;3.90;99.90;;;;;;5093706;28;19923;-66
2022/03/25 04:50:37;;;;;;;;;;;3.70;99.90;;;;;;5091802;28;19920;-66
2022/03/25 04:53:03;;;;;;;;;;;3.50;99.90;;;;;;5090839;28;19923;-67
2022/03/25 04:55:29;;;;;;;;;;;3.60;99.90;;;;;;5093562;28;19916;-66
2022/03/25 04:57:54;;;;;;;;;;;3.50;99.90;;;;;;5093359;28;19990;-67
2022/03/25 05:00:20;;;;;;;;;;;3.50;99.90;;;;;;5093222;28;20011;-66
2022/03/25 05:02:46;;;;;;;;;;;3.50;99.90;;;;;;5092436;28;19916;-66
2022/03/25 05:05:13;;;;;;;;;;;3.50;99.90;;;;;;5093283;28;19916;-65
2022/03/25 05:07:43;;;;;;;;;;;3.60;99.90;;;;;;5092021;28;19915;-67
2022/03/25 05:10:10;;;;;;;;;;;3.60;99.90;;;;;;5092880;28;19922;-66
2022/03/25 05:12:36;;;;;;;;;;;3.60;99.90;;;;;;5090788;28;19919;-66
2022/03/25 05:15:02;;;;;;;;;;;3.50;99.90;;;;;;5094436;28;19947;-66
2022/03/25 05:17:27;;;;;;;;;;;3.50;99.90;;;;;;5098083;28;19920;-66
2022/03/25 05:19:54;;;;;;;;;;;3.50;99.90;;;;;;5095706;28;20299;-66
2022/03/25 05:22:20;;;;;;;;;;;3.60;99.90;;;;;;5092470;28;19939;-66
2022/03/25 05:24:45;;;;;;;;;;;3.60;99.90;;;;;;5100471;28;19919;-66
2022/03/25 05:27:11;;;;;;;;;;;3.50;99.90;;;;;;5091890;28;19945;-66
2022/03/25 05:29:36;;;;;;;;;;;3.50;99.90;;;;;;5065711;28;19920;-65
2022/03/25 05:32:02;;;;;;;;;;;3.50;99.90;;;;;;5089770;28;19965;-67
2022/03/25 05:34:27;;;;;;;;;;;3.50;99.90;;;;;;5090912;28;19916;-68
2022/03/25 05:36:53;;;;;;;;;;;3.50;99.90;;;;;;5089935;28;20368;-67
2022/03/25 05:39:18;;;;;;;;;;;3.40;99.90;;;;;;5089798;28;19916;-67
2022/03/25 05:41:44;;;;;;;;;;;3.50;99.90;;;;;;5091696;28;19916;-66
2022/03/25 05:44:09;;;;;;;;;;;3.50;99.90;;;;;;5092716;28;19920;-67
2022/03/25 05:46:35;;;;;;;;;;;3.40;99.90;;;;;;5091004;28;19985;-67
2022/03/25 05:49:01;;;;;;;;;;;3.50;99.90;;;;;;5092532;28;19934;-67
2022/03/25 05:51:27;;;;;;;;;;;3.50;99.90;;;;;;5092227;28;19930;-67
2022/03/25 05:53:52;;;;;;;;;;;3.50;99.90;;;;;;5091681;28;19927;-66
2022/03/25 05:56:18;;;;;;;;;;;3.60;99.90;;;;;;5092157;28;20403;-67
2022/03/25 05:58:43;;;;;;;;;;;3.60;99.90;;;;;;5092296;28;20006;-67
2022/03/25 06:01:09;;;;;;;;;;;3.60;99.90;;;;;;5092131;28;19920;-67
2022/03/25 06:03:34;;;;;;;;;;;3.60;99.90;;;;;;5091135;28;19915;-67
2022/03/25 06:06:02;;;;;;;;;;;3.70;99.90;;;;;;5091216;28;20296;-67
2022/03/25 06:08:27;;;;;;;;;;;3.60;99.90;;;;;;5091708;28;19926;-67
2022/03/25 06:10:53;;;;;;;;;;;3.60;99.90;;;;;;5073686;28;19916;-67
2022/03/25 06:13:19;;;;;;;;;;;3.60;99.90;;;;;;5089756;28;19920;-64
2022/03/25 06:15:44;;;;;;;;;;;3.60;99.90;;;;;;5091922;28;19947;-68
2022/03/25 06:18:10;;;;;;;;;;;3.70;99.90;;;;;;5091901;28;19927;-67
2022/03/25 06:20:35;;;;;;;;;;;3.70;99.90;;;;;;5091841;28;20352;-67
2022/03/25 06:23:01;;;;;;;;;;;3.70;99.90;;;;;;5089903;28;20003;-67
2022/03/25 06:25:27;;;;;;;;;;;3.70;99.90;;;;;;5091813;28;19920;-67
2022/03/25 06:27:52;;;;;;;;;;;3.70;99.90;;;;;;5097264;28;19916;-68
2022/03/25 06:30:19;;;;;;;;;;;3.60;99.90;;;;;;5095706;28;19916;-67
2022/03/25 06:32:45;;;;;;;;;;;3.70;99.90;;;;;;5090721;28;19926;-68
2022/03/25 06:35:11;;;;;;;;;;;3.80;99.90;;;;;;5092024;28;20019;-68
2022/03/25 06:37:36;;;;;;;;;;;3.80;99.90;;;;;;5091740;28;19925;-67
2022/03/25 06:40:07;;;;;;;;;;;3.70;99.90;;;;;;5091476;28;19924;-68
2022/03/25 06:42:34;;;;;;;;;;;3.70;99.90;;;;;;5091774;28;19981;-67
2022/03/25 06:44:59;;;;;;;;;;;3.90;99.90;;;;;;5108741;28;19981;-67
2022/03/25 06:47:25;;;;;;;;;;;3.90;99.90;;;;;;5108116;28;19916;-67
2022/03/25 06:49:51;;;;;;;;;;;3.90;99.90;;;;;;5091298;28;20002;-67
2022/03/25 06:52:16;;;;;;;;;;;4.00;99.90;;;;;;5088966;28;19962;-67
2022/03/25 06:54:42;;;;;;;;;;;4.00;99.90;;;;;;5090978;28;20673;-67
2022/03/25 06:57:09;;;;;;;;;;;4.00;99.90;;;;;;5091280;28;20336;-66
2022/03/25 06:59:35;;;;;;;;;;;4.00;99.90;;;;;;5089706;28;19916;-67
2022/03/25 07:02:01;;;;;;;;;;;4.10;99.90;;;;;;5088896;28;19943;-68
2022/03/25 07:04:26;;;;;;;;;;;4.20;99.90;;;;;;5090989;28;20372;-67
2022/03/25 07:06:55;;;;;;;;;;;4.30;99.90;;;;;;5090886;28;20303;-68
2022/03/25 07:09:20;;;;;;;;;;;4.30;99.90;;;;;;5089205;28;19923;-67
2022/03/25 07:11:47;;;;;;;;;;;4.40;99.90;;;;;;5090278;28;19920;-67
2022/03/25 07:14:12;;;;;;;;;;;4.40;99.90;;;;;;5090951;28;20350;-68
2022/03/25 07:16:42;;;;;;;;;;;4.50;99.90;;;;;;5090791;28;19962;-67
2022/03/25 07:19:10;;;;;;;;;;;4.60;99.90;;;;;;5089128;28;20045;-67
2022/03/25 07:21:36;;;;;;;;;;;4.80;99.90;;;;;;5073911;28;19916;-67
2022/03/25 07:24:01;;;;;;;;;;;4.80;99.90;;;;;;5085507;28;20463;-67
2022/03/25 07:26:27;;;;;;;;;;;4.80;99.90;;;;;;5090787;28;19978;-67
2022/03/25 07:28:52;;;;;;;;;;;5.00;99.90;;;;;;5054368;28;19917;-67
2022/03/25 07:31:18;;;;;;;;;;;5.00;99.90;;;;;;5050356;28;19916;-67
2022/03/25 07:33:44;;;;;;;;;;;5.10;99.90;;;;;;5049577;28;20560;-67
2022/03/25 07:36:09;;;;;;;;;;;5.20;99.90;;;;;;5050139;28;19927;-67
2022/03/25 07:38:35;;;;;;;;;;;5.30;99.90;;;;;;5051966;28;19939;-67
2022/03/25 07:41:01;;;;;;;;;;;5.50;99.90;;;;;;5052223;28;19916;-67
2022/03/25 07:43:27;;;;;;;;;;;5.50;99.90;;;;;;5049524;28;20003;-67
2022/03/25 07:45:52;;;;;;;;;;;5.70;99.90;;;;;;5050353;28;19928;-67
2022/03/25 07:48:18;;;;;;;;;;;5.80;99.90;;;;;;5050190;28;20004;-66
2022/03/25 07:50:44;;;;;;;;;;;5.80;99.90;;;;;;5050279;28;20007;-66
2022/03/25 07:53:10;;;;;;;;;;;5.90;99.90;;;;;;5060260;28;20023;-66
2022/03/25 07:55:35;;;;;;;;;;;6.00;99.90;;;;;;5069560;28;19922;-66
2022/03/25 07:58:01;;;;;;;;;;;6.20;99.90;;;;;;5070325;28;20016;-66
2022/03/25 08:00:26;;;;;;;;;;;6.30;99.90;;;;;;5070153;28;19920;-66
2022/03/25 08:02:53;;;;;;;;;;;6.20;99.90;;;;;;5069647;28;20592;-67
2022/03/25 08:05:19;;;;;;;;;;;6.30;99.90;;;;;;5077713;28;19927;-66
2022/03/25 08:07:48;;;;;;;;;;;6.40;99.90;;;;;;5088690;28;19965;-68
2022/03/25 08:10:17;;;;;;;;;;;6.50;99.90;;;;;;5076828;28;19916;-68
2022/03/25 08:12:44;;;;;;;;;;;6.60;99.90;;;;;;5068336;28;20472;-66
2022/03/25 08:15:10;;;;;;;;;;;6.70;99.90;;;;;;5058703;28;19924;-66
2022/03/25 08:17:48;;;;;;;;;;;6.80;99.90;;;;;;5060172;28;19917;-67
2022/03/25 08:20:18;;;;;;;;;;;6.90;99.90;;;;;;5058781;28;19917;-67
2022/03/25 08:22:44;;;;;;;;;;;7.00;99.90;;;;;;5058049;28;20356;-67
2022/03/25 08:27:58;;;;;;;;;;;7.20;99.90;;;;;;5070014;28;19917;-67
2022/03/25 08:30:25;;;;;;;;;;;7.20;99.90;;;;;;5072205;28;19920;-72
2022/03/25 08:32:51;;;;;;;;;;;7.30;99.90;;;;;;5071909;28;19928;-73
2022/03/25 08:35:16;;;;;;;;;;;7.40;99.90;;;;;;5073855;28;19920;-74
2022/03/25 08:37:42;;;;;;;;;;;7.50;99.90;;;;;;5073508;28;19927;-73
2022/03/25 08:40:08;;;;;;;;;;;7.60;99.90;;;;;;5073859;28;19923;-73
2022/03/25 08:42:33;;;;;;;;;;;7.70;99.90;;;;;;5059951;28;19917;-73
2022/03/25 08:44:59;;;;;;;;;;;7.70;99.90;;;;;;5071662;28;20023;-72
2022/03/25 08:47:24;;;;;;;;;;;7.70;99.90;;;;;;5067172;28;19917;-72
2022/03/25 08:49:50;;;;;;;;;;;7.80;99.90;;;;;;5072292;28;20365;-72
2022/03/25 08:52:17;;;;;;;;;;;7.90;99.90;;;;;;5068738;28;19970;-72
2022/03/25 08:54:43;;;;;;;;;;;8.00;99.90;;;;;;5070658;28;19927;-72
2022/03/25 08:57:08;;;;;;;;;;;8.10;99.90;;;;;;5071055;28;20327;-72
2022/03/25 08:59:34;;;;;;;;;;;8.30;99.90;;;;;;5073029;28;19970;-71
2022/03/25 09:01:59;;;;;;;;;;;8.30;99.90;;;;;;5076574;28;19923;-72
2022/03/25 09:04:25;;;;;;;;;;;8.50;99.90;;;;;;5084387;28;19923;-72
2022/03/25 09:06:50;;;;;;;;;;;8.50;99.90;;;;;;5079805;28;20380;-72
2022/03/25 09:09:16;;;;;;;;;;;8.70;99.90;;;;;;5061915;28;19917;-72
2022/03/25 09:11:41;;;;;;;;;;;8.70;99.90;;;;;;5055460;28;19943;-73
2022/03/25 09:14:07;;;;;;;;;;;8.80;99.90;;;;;;5072272;28;19920;-72
2022/03/25 09:16:32;;;;;;;;;;;8.90;99.90;;;;;;5071324;28;19916;-72
2022/03/25 09:19:01;;;;;;;;;;;9.00;99.90;;;;;;5071092;28;19923;-72
2022/03/25 09:21:26;;;;;;;;;;;9.20;99.90;;;;;;5065958;28;20063;-72
2022/03/25 09:23:52;;;;;;;;;;;9.30;99.90;;;;;;5054090;28;19951;-73
2022/03/25 09:26:17;;;;;;;;;;;9.40;99.90;;;;;;5087124;28;19973;-72
2022/03/25 09:28:43;;;;;;;;;;;9.50;99.90;;;;;;5097974;28;19954;-72
2022/03/25 09:31:08;;;;;;;;;;;9.60;99.90;;;;;;5079532;28;19927;-72
2022/03/25 09:33:34;;;;;;;;;;;9.70;99.90;;;;;;5071829;28;20602;-73
2022/03/25 09:35:59;;;;;;;;;;;9.90;99.90;;;;;;5064252;28;19924;-72
2022/03/25 09:38:26;;;;;;;;;;;9.90;99.90;;;;;;5050938;28;19921;-72
2022/03/25 09:40:52;;;;;;;;;;;10.00;99.90;;;;;;5059265;28;19916;-71
2022/03/25 09:43:22;;;;;;;;;;;10.00;99.90;;;;;;5060694;28;20038;-72
2022/03/25 09:45:47;;;;;;;;;;;10.10;99.90;;;;;;5062328;28;20381;-72
2022/03/25 09:48:13;;;;;;;;;;;10.20;99.90;;;;;;5060407;28;19923;-72
2022/03/25 09:50:40;;;;;;;;;;;10.30;99.90;;;;;;5061534;28;19917;-72
2022/03/25 09:53:06;;;;;;;;;;;10.50;99.90;;;;;;5061537;28;19940;-72
2022/03/25 09:55:32;;;;;;;;;;;10.50;99.90;;;;;;5039620;28;19927;-72
2022/03/25 09:57:58;;;;;;;;;;;10.70;99.90;;;;;;5052467;28;20296;-71
2022/03/25 10:00:23;;;;;;;;;;;10.90;99.90;;;;;;5060591;28;19917;-72
2022/03/25 10:02:50;;;;;;;;;;;10.90;99.90;;;;;;5053733;28;19921;-72
2022/03/25 10:05:16;;;;;;;;;;;10.90;99.90;;;;;;5051807;28;20309;-72
2022/03/25 10:08:00;;;;;;;;;;;11.10;99.90;;;;;;5050600;28;19928;-72
2022/03/25 10:10:29;;;;;;;;;;;11.30;99.90;;;;;;5051951;28;19923;-73
2022/03/25 10:13:00;;;;;;;;;;;11.20;99.90;;;;;;5050917;28;19926;-73
2022/03/25 10:15:27;;;;;;;;;;;11.40;99.90;;;;;;5050324;28;19916;-73
2022/03/25 10:17:59;;;;;;;;;;;11.40;99.90;;;;;;5050598;28;19933;-73
2022/03/25 10:20:31;;;;;;;;;;;11.50;99.90;;;;;;5051361;28;19999;-73
2022/03/25 10:23:01;;;;;;;;;;;11.50;99.90;;;;;;5050895;28;19924;-73
2022/03/25 10:25:47;;;;;;;;;;;11.60;99.90;;;;;;5051532;28;20742;-74
2022/03/25 10:28:39;;;;;;;;;;;11.60;99.90;;;;;;5050728;28;19927;-73
2022/03/25 10:31:06;;;;;;;;;;;11.60;99.90;;;;;;5034860;28;19917;-73
2022/03/25 10:33:32;;;;;;;;;;;11.70;99.90;;;;;;5049614;28;19968;-73
2022/03/25 10:36:08;;;;;;;;;;;11.80;99.90;;;;;;5033505;28;19920;-73
2022/03/25 10:38:47;;;;;;;;;;;12.00;99.90;;;;;;5049819;28;19924;-74
2022/03/25 10:41:17;;;;;;;;;;;12.00;99.90;;;;;;5032993;28;19960;-74
2022/03/25 10:44:04;;;;;;;;;;;12.10;99.90;;;;;;5050430;28;19924;-74
2022/03/25 10:46:35;;;;;;;;;;;12.20;99.90;;;;;;5052496;28;19931;-74
2022/03/25 10:49:03;;;;;;;;;;;12.30;99.90;;;;;;5075757;28;19978;-72
2022/03/25 10:51:28;;;;;;;;;;;12.30;99.90;;;;;;5067891;28;20384;-73
2022/03/25 10:53:58;;;;;;;;;;;12.30;99.90;;;;;;5050577;28;19920;-73
2022/03/25 10:56:24;;;;;;;;;;;12.30;99.90;;;;;;5049863;28;20392;-73
2022/03/25 10:58:50;;;;;;;;;;;12.50;99.90;;;;;;5049595;28;19928;-73
2022/03/25 11:01:15;;;;;;;;;;;12.40;99.90;;;;;;5049250;28;19916;-73
2022/03/25 11:03:41;;;;;;;;;;;12.50;99.90;;;;;;5048860;28;19916;-73
2022/03/25 11:06:08;;;;;;;;;;;12.70;99.90;;;;;;5049663;28;19917;-73
2022/03/25 11:08:35;;;;;;;;;;;12.80;99.90;;;;;;5050126;28;20032;-73
2022/03/25 11:11:00;;;;;;;;;;;12.90;99.90;;;;;;5053822;28;19921;-72
2022/03/25 11:13:26;;;;;;;;;;;12.90;99.90;;;;;;5054285;28;19923;-73
2022/03/25 11:15:54;;;;;;;;;;;13.00;99.90;;;;;;5049919;28;20519;-72
2022/03/25 11:18:19;;;;;;;;;;;13.20;99.60;;;;;;5051106;28;19971;-73
2022/03/25 11:20:45;;;;;;;;;;;13.20;99.90;;;;;;5049384;28;19916;-73
2022/03/25 11:23:20;;;;;;;;;;;13.20;97.30;;;;;;5048731;28;19964;-73
2022/03/25 11:25:52;;;;;;;;;;;13.20;95.20;;;;;;5050656;28;19917;-73
2022/03/25 11:28:20;;;;;;;;;;;13.30;97.10;;;;;;5049463;28;20192;-73
2022/03/25 11:30:56;;;;;;;;;;;13.30;96.80;;;;;;5049247;28;20380;-73
2022/03/25 11:33:21;;;;;;;;;;;13.30;97.10;;;;;;5048308;28;20426;-73
2022/03/25 11:35:47;;;;;;;;;;;13.40;97.50;;;;;;5050446;28;19924;-73
2022/03/25 11:38:22;;;;;;;;;;;13.50;96.00;;;;;;5050633;28;19920;-73
2022/03/25 11:40:48;;;;;;;;;;;13.50;96.50;;;;;;5048969;28;19920;-73
2022/03/25 11:43:15;;;;;;;;;;;13.50;93.90;;;;;;5049793;28;19928;-73
2022/03/25 11:45:41;;;;;;;;;;;13.60;92.60;;;;;;5050035;28;19927;-72
2022/03/25 11:48:08;;;;;;;;;;;13.80;95.30;;;;;;5059427;28;19916;-73
2022/03/25 11:50:35;;;;;;;;;;;13.70;93.50;;;;;;5051043;28;20003;-73
2022/03/25 11:53:27;;;;;;;;;;;13.90;93.30;;;;;;5048685;28;19916;-73
2022/03/25 11:56:01;;;;;;;;;;;13.80;93.60;;;;;;5047297;28;19931;-74
2022/03/25 11:58:31;;;;;;;;;;;14.10;93.30;;;;;;5049029;28;19924;-73
2022/03/25 12:01:00;;;;;;;;;;;14.20;89.80;;;;;;5050231;28;20373;-73
2022/03/25 12:03:47;;;;;;;;;;;14.20;91.30;;;;;;5049148;28;20006;-73
2022/03/25 12:06:13;;;;;;;;;;;14.30;91.30;;;;;;5053126;28;20381;-73
2022/03/25 12:08:53;;;;;;;;;;;14.30;93.00;;;;;;5062274;28;19915;-73
2022/03/25 12:11:39;;;;;;;;;;;14.20;76.40;;;;;;5079155;28;19904;-72
2022/03/25 12:14:05;;;;;;;;;;;14.30;89.60;;;;;;5062781;28;19946;-73
2022/03/25 12:16:49;;;;;;;;;;;14.20;91.20;;;;;;5036391;28;20369;-73
2022/03/25 12:19:27;;;;;;;;;;;14.40;75.00;;;;;;5052868;28;19917;-73
2022/03/25 12:22:03;;;;;;;;;;;14.50;89.90;;;;;;5072084;28;19948;-73
2022/03/25 12:24:30;;;;;;;;;;;14.50;77.80;;;;;;5061864;28;19917;-73
2022/03/25 12:26:55;;;;;;;;;;;14.50;84.90;;;;;;5036154;28;19916;-73
2022/03/25 12:29:27;;;;;;;;;;;14.60;89.40;;;;;;5052686;28;20376;-73
2022/03/25 12:31:53;;;;;;;;;;;14.70;84.80;;;;;;5051366;28;20004;-74
2022/03/25 12:34:28;;;;;;;;;;;14.60;81.20;;;;;;5052018;28;20001;-73
2022/03/25 12:36:56;;;;;;;;;;;14.60;71.50;;;;;;5035569;28;19975;-73
2022/03/25 12:39:21;;;;;;;;;;;14.60;74.50;;;;;;5052068;28;20012;-73
2022/03/25 12:41:48;;;;;;;;;;;14.80;78.80;;;;;;5053229;28;20430;-73
2022/03/25 12:44:14;;;;;;;;;;;14.90;74.10;;;;;;5053562;28;20011;-73
2022/03/25 12:46:39;;;;;;;;;;;14.80;73.00;;;;;;5051953;28;20014;-73
2022/03/25 12:49:06;;;;;;;;;;;14.80;67.60;;;;;;5052052;28;20434;-68
2022/03/25 12:51:32;;;;;;;;;;;14.80;69.90;;;;;;5050724;28;19970;-68
2022/03/25 12:53:57;;;;;;;;;;;14.90;69.40;;;;;;5052817;28;20447;-67
2022/03/25 12:56:23;;;;;;;;;;;14.90;67.40;;;;;;5053713;28;20023;-67
2022/03/25 12:58:49;;;;;;;;;;;14.90;71.70;;;;;;5059326;28;19923;-73
2022/03/25 13:01:18;;;;;;;;;;;15.10;66.60;;;;;;5072117;28;19974;-73
2022/03/25 13:03:44;;;;;;;;;;;15.00;63.70;;;;;;5071223;28;19916;-73
2022/03/25 13:06:10;;;;;;;;;;;15.10;63.90;;;;;;5057896;28;19920;-73
2022/03/25 13:08:36;;;;;;;;;;;15.20;61.60;;;;;;5055497;28;20372;-73
2022/03/25 13:11:02;;;;;;;;;;;15.30;61.40;;;;;;5072766;28;19916;-73
2022/03/25 13:13:31;;;;;;;;;;;15.20;60.20;;;;;;5071280;28;20546;-73
2022/03/25 13:16:03;;;;;;;;;;;15.20;63.20;;;;;;5071153;28;19928;-73
2022/03/25 13:18:34;;;;;;;;;;;15.20;60.50;;;;;;5071493;28;19920;-73
2022/03/25 13:21:00;;;;;;;;;;;15.20;57.00;;;;;;5071726;28;19916;-73
2022/03/25 13:23:28;;;;;;;;;;;15.20;57.20;;;;;;5071992;28;19916;-73
2022/03/25 13:25:54;;;;;;;;;;;15.20;61.10;;;;;;5072745;28;19916;-73
2022/03/25 13:28:19;;;;;;;;;;;15.20;59.70;;;;;;5072837;28;19999;-73
2022/03/25 13:30:48;;;;;;;;;;;15.20;60.60;;;;;;5079994;28;19917;-72
2022/03/25 13:33:15;;;;;;;;;;;15.30;59.40;;;;;;5069772;28;19927;-74
2022/03/25 13:35:48;;;;;;;;;;;15.30;62.10;;;;;;5096216;28;19943;-73
2022/03/25 13:38:15;;;;;;;;;;;15.30;59.00;;;;;;5092180;28;19905;-73
2022/03/25 13:40:41;;;;;;;;;;;15.30;58.30;;;;;;5071092;28;20294;-73
2022/03/25 13:43:08;;;;;;;;;;;15.40;59.90;;;;;;5070213;28;19923;-73
2022/03/25 13:45:34;;;;;;;;;;;15.50;57.00;;;;;;5072528;28;19923;-71
2022/03/25 13:48:26;;;;;;;;;;;15.40;55.10;;;;;;5072311;28;19921;-71
2022/03/25 13:50:52;;;;;;;;;;;15.40;56.60;;;;;;5066800;28;19921;-69
2022/03/25 13:53:33;;;;;;;;;;;15.50;57.40;;;;;;5071564;28;19950;-68
2022/03/25 13:56:09;;;;;;;;;;;15.60;56.20;;;;;;5070960;28;20309;-67
2022/03/25 13:58:34;;;;;;;;;;;15.50;56.80;;;;;;5070629;28;19916;-69
2022/03/25 14:01:00;;;;;;;;;;;15.60;54.00;;;;;;5070565;28;19921;-68
2022/03/25 14:03:29;;;;;;;;;;;15.50;56.00;;;;;;5071707;28;19928;-67
2022/03/25 14:06:07;;;;;;;;;;;15.50;53.20;;;;;;5071880;28;20399;-68
2022/03/25 14:08:33;;;;;;;;;;;15.50;53.90;;;;;;5070443;28;19920;-68
2022/03/25 14:10:59;;;;;;;;;;;15.60;54.40;;;;;;5071750;28;20003;-68
2022/03/25 14:13:25;;;;;;;;;;;15.50;53.20;;;;;;5071065;28;19920;-68
2022/03/25 14:15:51;;;;;;;;;;;15.50;54.70;;;;;;5070256;28;20387;-67
2022/03/25 14:18:18;;;;;;;;;;;15.60;53.90;;;;;;5071690;28;19942;-67
2022/03/25 14:20:43;;;;;;;;;;;15.60;53.70;;;;;;5070141;28;20348;-68
2022/03/25 14:23:11;;;;;;;;;;;15.80;50.90;;;;;;5069705;28;19916;-68
2022/03/25 14:25:37;;;;;;;;;;;15.70;51.60;;;;;;5069683;28;19917;-68
2022/03/25 14:28:10;;;;;;;;;;;15.70;50.80;;;;;;5071196;28;19973;-68